sensor_id;sensor_type;location;lat;lon;timestamp;temperature;humidity
19348;DHT22;9810;52.480;9.806;2023-07-31T00:00:44;16.10;99.90
19348;DHT22;9810;52.480;9.806;2023-07-31T00:03:13;15.90;99.90
19348;DHT22;9810;52.480;9.806;2023-07-31T00:05:41;15.80;99.90
19348;DHT22;9810;52.480;9.806;2023-07-31T00:08:08;15.90;99.90
19348;DHT22;9810;52.480;9.806;2023-07-31T00:10:35;15.90;99.90
19348;DHT22;9810;52.480;9.806;2023-07-31T00:13:03;15.90;99.90
19348;DHT22;9810;52.480;9.806;2023-07-31T00:15:30;15.80;99.90
19348;DHT22;9810;52.480;9.806;2023-07-31T00:17:57;15.90;99.90
19348;DHT22;9810;52.480;9.806;2023-07-31T00:20:26;15.90;99.90
19348;DHT22;9810;52.480;9.806;2023-07-31T00:22:53;15.90;99.90
19348;DHT22;9810;52.480;9.806;2023-07-31T00:25:21;15.80;99.90
19348;DHT22;9810;52.480;9.806;2023-07-31T00:27:48;15.80;99.90
19348;DHT22;9810;52.480;9.806;2023-07-31T00:30:16;15.80;99.90
19348;DHT22;9810;52.480;9.806;2023-07-31T00:32:43;15.80;99.90
19348;DHT22;9810;52.480;9.806;2023-07-31T00:35:13;15.70;99.90
19348;DHT22;9810;52.480;9.806;2023-07-31T00:37:43;15.80;99.90
19348;DHT22;9810;52.480;9.806;2023-07-31T00:40:10;15.80;99.90
19348;DHT22;9810;52.480;9.806;2023-07-31T00:42:39;15.80;99.90
19348;DHT22;9810;52.480;9.806;2023-07-31T00:45:07;16.10;99.90
19348;DHT22;9810;52.480;9.806;2023-07-31T00:47:36;16.10;99.90
19348;DHT22;9810;52.480;9.806;2023-07-31T00:50:05;16.00;99.90
19348;DHT22;9810;52.480;9.806;2023-07-31T00:52:32;16.00;99.90
19348;DHT22;9810;52.480;9.806;2023-07-31T00:55:02;15.90;99.90
19348;DHT22;9810;52.480;9.806;2023-07-31T00:57:30;15.90;99.90
19348;DHT22;9810;52.480;9.806;2023-07-31T00:59:59;16.00;99.90
19348;DHT22;9810;52.480;9.806;2023-07-31T01:02:26;15.90;99.90
19348;DHT22;9810;52.480;9.806;2023-07-31T01:04:53;15.80;99.90
19348;DHT22;9810;52.480;9.806;2023-07-31T01:07:29;15.80;99.90
19348;DHT22;9810;52.480;9.806;2023-07-31T01:10:08;15.80;99.90
19348;DHT22;9810;52.480;9.806;2023-07-31T01:12:38;15.70;99.90
19348;DHT22;9810;52.480;9.806;2023-07-31T01:15:07;15.70;99.90
19348;DHT22;9810;52.480;9.806;2023-07-31T01:17:36;15.70;99.90
19348;DHT22;9810;52.480;9.806;2023-07-31T01:20:07;15.90;99.90
19348;DHT22;9810;52.480;9.806;2023-07-31T01:23:03;15.90;99.90
19348;DHT22;9810;52.480;9.806;2023-07-31T01:26:00;15.80;99.90
19348;DHT22;9810;52.480;9.806;2023-07-31T01:28:36;15.80;99.90
19348;DHT22;9810;52.480;9.806;2023-07-31T01:31:08;15.70;99.90
19348;DHT22;9810;52.480;9.806;2023-07-31T01:33:36;15.70;99.90
19348;DHT22;9810;52.480;9.806;2023-07-31T01:36:04;15.70;99.90
19348;DHT22;9810;52.480;9.806;2023-07-31T01:38:32;15.80;99.90
19348;DHT22;9810;52.480;9.806;2023-07-31T01:41:01;15.90;99.90
19348;DHT22;9810;52.480;9.806;2023-07-31T01:43:28;15.80;99.90
19348;DHT22;9810;52.480;9.806;2023-07-31T01:45:55;15.80;99.90
19348;DHT22;9810;52.480;9.806;2023-07-31T01:48:22;15.70;99.90
19348;DHT22;9810;52.480;9.806;2023-07-31T01:50:50;15.70;99.90
19348;DHT22;9810;52.480;9.806;2023-07-31T01:53:17;15.70;99.90
19348;DHT22;9810;52.480;9.806;2023-07-31T01:55:44;15.70;99.90
19348;DHT22;9810;52.480;9.806;2023-07-31T01:58:13;15.80;99.90
19348;DHT22;9810;52.480;9.806;2023-07-31T02:00:41;15.70;99.90
19348;DHT22;9810;52.480;9.806;2023-07-31T02:03:08;15.60;99.90
19348;DHT22;9810;52.480;9.806;2023-07-31T02:05:35;15.80;99.90
19348;DHT22;9810;52.480;9.806;2023-07-31T02:08:03;15.70;99.90
19348;DHT22;9810;52.480;9.806;2023-07-31T02:10:30;15.70;99.90
19348;DHT22;9810;52.480;9.806;2023-07-31T02:12:57;15.80;99.90
19348;DHT22;9810;52.480;9.806;2023-07-31T02:15:26;15.70;99.90
19348;DHT22;9810;52.480;9.806;2023-07-31T02:17:54;15.70;99.90
19348;DHT22;9810;52.480;9.806;2023-07-31T02:20:21;15.70;99.90
19348;DHT22;9810;52.480;9.806;2023-07-31T02:22:48;15.60;99.90
19348;DHT22;9810;52.480;9.806;2023-07-31T02:25:16;15.60;99.90
19348;DHT22;9810;52.480;9.806;2023-07-31T02:27:43;15.60;99.90
19348;DHT22;9810;52.480;9.806;2023-07-31T02:30:11;15.60;99.90
19348;DHT22;9810;52.480;9.806;2023-07-31T02:32:39;15.70;99.90
19348;DHT22;9810;52.480;9.806;2023-07-31T02:35:07;15.60;99.90
19348;DHT22;9810;52.480;9.806;2023-07-31T02:37:35;15.60;99.90
19348;DHT22;9810;52.480;9.806;2023-07-31T02:40:05;15.60;99.90
19348;DHT22;9810;52.480;9.806;2023-07-31T02:42:32;15.60;99.90
19348;DHT22;9810;52.480;9.806;2023-07-31T02:45:00;15.70;99.90
19348;DHT22;9810;52.480;9.806;2023-07-31T02:47:27;15.70;99.90
19348;DHT22;9810;52.480;9.806;2023-07-31T02:49:56;15.70;99.90
19348;DHT22;9810;52.480;9.806;2023-07-31T02:52:25;15.70;99.90
19348;DHT22;9810;52.480;9.806;2023-07-31T02:54:52;15.70;99.90
19348;DHT22;9810;52.480;9.806;2023-07-31T02:57:19;15.70;99.90
19348;DHT22;9810;52.480;9.806;2023-07-31T02:59:47;15.80;99.90
19348;DHT22;9810;52.480;9.806;2023-07-31T03:02:14;15.80;99.90
19348;DHT22;9810;52.480;9.806;2023-07-31T03:04:41;15.80;99.90
19348;DHT22;9810;52.480;9.806;2023-07-31T03:07:10;15.80;99.90
19348;DHT22;9810;52.480;9.806;2023-07-31T03:09:37;15.80;99.90
19348;DHT22;9810;52.480;9.806;2023-07-31T03:12:05;15.90;99.90
19348;DHT22;9810;52.480;9.806;2023-07-31T03:14:33;15.90;99.90
19348;DHT22;9810;52.480;9.806;2023-07-31T03:17:00;15.90;99.90
19348;DHT22;9810;52.480;9.806;2023-07-31T03:19:30;15.90;99.90
19348;DHT22;9810;52.480;9.806;2023-07-31T03:21:57;15.90;99.90
19348;DHT22;9810;52.480;9.806;2023-07-31T03:24:28;15.90;99.90
19348;DHT22;9810;52.480;9.806;2023-07-31T03:26:55;16.10;99.90
19348;DHT22;9810;52.480;9.806;2023-07-31T03:29:22;16.00;99.90
19348;DHT22;9810;52.480;9.806;2023-07-31T03:31:49;16.00;99.90
19348;DHT22;9810;52.480;9.806;2023-07-31T03:34:17;16.10;99.90
19348;DHT22;9810;52.480;9.806;2023-07-31T03:36:44;16.00;99.90
19348;DHT22;9810;52.480;9.806;2023-07-31T03:39:11;16.00;99.90
19348;DHT22;9810;52.480;9.806;2023-07-31T03:41:40;16.00;99.90
19348;DHT22;9810;52.480;9.806;2023-07-31T03:44:07;15.90;99.90
19348;DHT22;9810;52.480;9.806;2023-07-31T03:46:35;15.90;99.90
19348;DHT22;9810;52.480;9.806;2023-07-31T03:49:02;15.90;99.90
19348;DHT22;9810;52.480;9.806;2023-07-31T03:51:29;15.90;99.90
19348;DHT22;9810;52.480;9.806;2023-07-31T03:53:56;16.00;99.90
19348;DHT22;9810;52.480;9.806;2023-07-31T03:56:24;15.90;99.90
19348;DHT22;9810;52.480;9.806;2023-07-31T03:58:52;16.00;99.90
19348;DHT22;9810;52.480;9.806;2023-07-31T04:01:19;16.00;99.90
19348;DHT22;9810;52.480;9.806;2023-07-31T04:03:47;16.10;99.90
19348;DHT22;9810;52.480;9.806;2023-07-31T04:06:14;16.00;99.90
19348;DHT22;9810;52.480;9.806;2023-07-31T04:08:43;15.90;99.90
19348;DHT22;9810;52.480;9.806;2023-07-31T04:11:11;15.80;99.90
19348;DHT22;9810;52.480;9.806;2023-07-31T04:13:38;15.80;99.90
19348;DHT22;9810;52.480;9.806;2023-07-31T04:16:07;15.70;99.90
19348;DHT22;9810;52.480;9.806;2023-07-31T04:18:34;15.70;99.90
19348;DHT22;9810;52.480;9.806;2023-07-31T04:21:01;15.70;99.90
19348;DHT22;9810;52.480;9.806;2023-07-31T04:23:29;15.80;99.90
19348;DHT22;9810;52.480;9.806;2023-07-31T04:25:56;15.80;99.90
19348;DHT22;9810;52.480;9.806;2023-07-31T04:28:23;15.90;99.90
19348;DHT22;9810;52.480;9.806;2023-07-31T04:30:51;15.80;99.90
19348;DHT22;9810;52.480;9.806;2023-07-31T04:33:20;15.90;99.90
19348;DHT22;9810;52.480;9.806;2023-07-31T04:35:51;15.90;99.90
19348;DHT22;9810;52.480;9.806;2023-07-31T04:38:18;16.00;99.90
19348;DHT22;9810;52.480;9.806;2023-07-31T04:40:46;15.90;99.90
19348;DHT22;9810;52.480;9.806;2023-07-31T04:43:13;16.00;99.90
19348;DHT22;9810;52.480;9.806;2023-07-31T04:45:44;15.90;99.90
19348;DHT22;9810;52.480;9.806;2023-07-31T04:48:11;16.00;99.90
19348;DHT22;9810;52.480;9.806;2023-07-31T04:50:40;16.00;99.90
19348;DHT22;9810;52.480;9.806;2023-07-31T04:53:07;16.00;99.90
19348;DHT22;9810;52.480;9.806;2023-07-31T04:55:35;15.90;99.90
19348;DHT22;9810;52.480;9.806;2023-07-31T04:58:02;15.90;99.90
19348;DHT22;9810;52.480;9.806;2023-07-31T05:00:29;15.90;99.90
19348;DHT22;9810;52.480;9.806;2023-07-31T05:02:56;16.00;99.90
19348;DHT22;9810;52.480;9.806;2023-07-31T05:05:23;16.00;99.90
19348;DHT22;9810;52.480;9.806;2023-07-31T05:07:53;16.00;99.90
19348;DHT22;9810;52.480;9.806;2023-07-31T05:10:27;16.00;99.90
19348;DHT22;9810;52.480;9.806;2023-07-31T05:13:02;15.90;99.90
19348;DHT22;9810;52.480;9.806;2023-07-31T05:15:29;15.90;99.90
19348;DHT22;9810;52.480;9.806;2023-07-31T05:17:57;15.90;99.90
19348;DHT22;9810;52.480;9.806;2023-07-31T05:20:24;16.00;99.90
19348;DHT22;9810;52.480;9.806;2023-07-31T05:22:53;15.90;99.90
19348;DHT22;9810;52.480;9.806;2023-07-31T05:25:20;15.90;99.90
19348;DHT22;9810;52.480;9.806;2023-07-31T05:27:47;15.90;99.90
19348;DHT22;9810;52.480;9.806;2023-07-31T05:30:14;15.90;99.90
19348;DHT22;9810;52.480;9.806;2023-07-31T05:32:41;15.90;99.90
19348;DHT22;9810;52.480;9.806;2023-07-31T05:35:09;15.80;99.90
19348;DHT22;9810;52.480;9.806;2023-07-31T05:37:36;15.80;99.90
19348;DHT22;9810;52.480;9.806;2023-07-31T05:40:06;15.80;99.90
19348;DHT22;9810;52.480;9.806;2023-07-31T05:42:34;15.90;99.90
19348;DHT22;9810;52.480;9.806;2023-07-31T05:45:04;16.00;99.90
19348;DHT22;9810;52.480;9.806;2023-07-31T05:47:32;16.00;99.90
19348;DHT22;9810;52.480;9.806;2023-07-31T05:49:59;16.10;99.90
19348;DHT22;9810;52.480;9.806;2023-07-31T05:52:26;16.10;99.90
19348;DHT22;9810;52.480;9.806;2023-07-31T05:54:54;16.10;99.90
19348;DHT22;9810;52.480;9.806;2023-07-31T05:57:23;16.20;99.90
19348;DHT22;9810;52.480;9.806;2023-07-31T05:59:50;16.10;99.90
19348;DHT22;9810;52.480;9.806;2023-07-31T06:02:19;16.10;99.90
19348;DHT22;9810;52.480;9.806;2023-07-31T06:04:46;16.10;99.90
19348;DHT22;9810;52.480;9.806;2023-07-31T06:07:13;16.20;99.90
19348;DHT22;9810;52.480;9.806;2023-07-31T06:09:40;16.20;99.90
19348;DHT22;9810;52.480;9.806;2023-07-31T06:12:08;16.10;99.90
19348;DHT22;9810;52.480;9.806;2023-07-31T06:14:36;16.20;99.90
19348;DHT22;9810;52.480;9.806;2023-07-31T06:17:04;16.70;99.90
19348;DHT22;9810;52.480;9.806;2023-07-31T06:19:34;16.70;99.90
19348;DHT22;9810;52.480;9.806;2023-07-31T06:22:01;16.50;99.90
19348;DHT22;9810;52.480;9.806;2023-07-31T06:24:30;16.40;99.90
19348;DHT22;9810;52.480;9.806;2023-07-31T06:26:57;16.40;99.90
19348;DHT22;9810;52.480;9.806;2023-07-31T06:29:24;16.80;99.90
19348;DHT22;9810;52.480;9.806;2023-07-31T06:31:53;17.10;99.90
19348;DHT22;9810;52.480;9.806;2023-07-31T06:34:20;16.80;99.90
19348;DHT22;9810;52.480;9.806;2023-07-31T06:36:48;16.90;99.90
19348;DHT22;9810;52.480;9.806;2023-07-31T06:39:15;16.90;99.90
19348;DHT22;9810;52.480;9.806;2023-07-31T06:41:43;17.10;99.90
19348;DHT22;9810;52.480;9.806;2023-07-31T06:44:10;17.00;99.90
19348;DHT22;9810;52.480;9.806;2023-07-31T06:46:38;17.30;99.90
19348;DHT22;9810;52.480;9.806;2023-07-31T06:49:06;17.10;99.90
19348;DHT22;9810;52.480;9.806;2023-07-31T06:51:34;16.90;99.90
19348;DHT22;9810;52.480;9.806;2023-07-31T06:54:01;16.90;99.90
19348;DHT22;9810;52.480;9.806;2023-07-31T06:56:29;16.90;99.90
19348;DHT22;9810;52.480;9.806;2023-07-31T06:58:56;17.00;99.90
19348;DHT22;9810;52.480;9.806;2023-07-31T07:01:23;17.00;99.90
19348;DHT22;9810;52.480;9.806;2023-07-31T07:03:51;16.90;99.90
19348;DHT22;9810;52.480;9.806;2023-07-31T07:06:22;16.90;99.90
19348;DHT22;9810;52.480;9.806;2023-07-31T07:08:49;16.90;99.90
19348;DHT22;9810;52.480;9.806;2023-07-31T07:11:16;16.90;99.90
19348;DHT22;9810;52.480;9.806;2023-07-31T07:13:43;16.80;99.90
19348;DHT22;9810;52.480;9.806;2023-07-31T07:16:11;16.70;99.90
19348;DHT22;9810;52.480;9.806;2023-07-31T07:18:38;17.00;99.90
19348;DHT22;9810;52.480;9.806;2023-07-31T07:21:05;16.90;99.90
19348;DHT22;9810;52.480;9.806;2023-07-31T07:23:34;16.70;99.90
19348;DHT22;9810;52.480;9.806;2023-07-31T07:26:01;17.00;99.90
19348;DHT22;9810;52.480;9.806;2023-07-31T07:28:30;16.90;99.90
19348;DHT22;9810;52.480;9.806;2023-07-31T07:30:57;16.60;99.90
19348;DHT22;9810;52.480;9.806;2023-07-31T07:33:24;16.60;99.90
19348;DHT22;9810;52.480;9.806;2023-07-31T07:35:51;16.80;99.90
19348;DHT22;9810;52.480;9.806;2023-07-31T07:38:19;17.00;99.90
19348;DHT22;9810;52.480;9.806;2023-07-31T07:40:48;18.10;99.90
19348;DHT22;9810;52.480;9.806;2023-07-31T07:43:16;17.80;99.90
19348;DHT22;9810;52.480;9.806;2023-07-31T07:45:43;17.60;99.90
19348;DHT22;9810;52.480;9.806;2023-07-31T07:48:10;17.40;99.90
19348;DHT22;9810;52.480;9.806;2023-07-31T07:50:38;17.30;99.90
19348;DHT22;9810;52.480;9.806;2023-07-31T07:53:06;17.40;99.90
19348;DHT22;9810;52.480;9.806;2023-07-31T07:55:33;17.40;99.90
19348;DHT22;9810;52.480;9.806;2023-07-31T07:58:01;17.40;99.90
19348;DHT22;9810;52.480;9.806;2023-07-31T08:00:29;17.50;99.90
19348;DHT22;9810;52.480;9.806;2023-07-31T08:02:56;17.50;99.90
19348;DHT22;9810;52.480;9.806;2023-07-31T08:05:24;17.60;99.90
19348;DHT22;9810;52.480;9.806;2023-07-31T08:07:51;18.00;99.90
19348;DHT22;9810;52.480;9.806;2023-07-31T08:10:18;18.10;99.90
19348;DHT22;9810;52.480;9.806;2023-07-31T08:12:46;17.90;99.90
19348;DHT22;9810;52.480;9.806;2023-07-31T08:15:15;17.90;99.90
19348;DHT22;9810;52.480;9.806;2023-07-31T08:17:42;17.90;99.90
19348;DHT22;9810;52.480;9.806;2023-07-31T08:20:10;17.80;99.90
19348;DHT22;9810;52.480;9.806;2023-07-31T08:22:38;17.80;99.90
19348;DHT22;9810;52.480;9.806;2023-07-31T08:25:06;17.70;99.90
19348;DHT22;9810;52.480;9.806;2023-07-31T08:27:33;17.90;99.90
19348;DHT22;9810;52.480;9.806;2023-07-31T08:30:01;18.00;99.90
19348;DHT22;9810;52.480;9.806;2023-07-31T08:32:29;17.80;99.90
19348;DHT22;9810;52.480;9.806;2023-07-31T08:34:57;18.00;99.90
19348;DHT22;9810;52.480;9.806;2023-07-31T08:37:24;18.10;99.90
19348;DHT22;9810;52.480;9.806;2023-07-31T08:39:51;17.90;99.90
19348;DHT22;9810;52.480;9.806;2023-07-31T08:42:19;18.00;99.90
19348;DHT22;9810;52.480;9.806;2023-07-31T08:44:49;18.10;99.90
19348;DHT22;9810;52.480;9.806;2023-07-31T08:47:17;18.30;99.90
19348;DHT22;9810;52.480;9.806;2023-07-31T08:49:47;18.40;99.90
19348;DHT22;9810;52.480;9.806;2023-07-31T08:52:17;18.40;99.90
19348;DHT22;9810;52.480;9.806;2023-07-31T08:54:44;18.30;99.90
19348;DHT22;9810;52.480;9.806;2023-07-31T08:57:12;18.40;99.90
19348;DHT22;9810;52.480;9.806;2023-07-31T08:59:40;18.50;99.90
19348;DHT22;9810;52.480;9.806;2023-07-31T09:02:09;18.30;99.90
19348;DHT22;9810;52.480;9.806;2023-07-31T09:04:37;18.30;99.90
19348;DHT22;9810;52.480;9.806;2023-07-31T09:07:06;18.30;99.90
19348;DHT22;9810;52.480;9.806;2023-07-31T09:09:34;18.30;99.90
19348;DHT22;9810;52.480;9.806;2023-07-31T09:12:03;18.20;99.90
19348;DHT22;9810;52.480;9.806;2023-07-31T09:14:30;18.30;99.90
19348;DHT22;9810;52.480;9.806;2023-07-31T09:16:58;18.20;99.90
19348;DHT22;9810;52.480;9.806;2023-07-31T09:19:27;18.00;99.90
19348;DHT22;9810;52.480;9.806;2023-07-31T09:21:55;17.90;99.90
19348;DHT22;9810;52.480;9.806;2023-07-31T09:24:27;18.00;99.90
19348;DHT22;9810;52.480;9.806;2023-07-31T09:26:56;18.30;99.90
19348;DHT22;9810;52.480;9.806;2023-07-31T09:29:24;18.50;99.90
19348;DHT22;9810;52.480;9.806;2023-07-31T09:31:52;18.90;99.90
19348;DHT22;9810;52.480;9.806;2023-07-31T09:34:28;18.80;99.90
19348;DHT22;9810;52.480;9.806;2023-07-31T09:37:00;18.80;99.90
19348;DHT22;9810;52.480;9.806;2023-07-31T09:39:32;18.70;99.90
19348;DHT22;9810;52.480;9.806;2023-07-31T09:42:11;18.70;99.90
19348;DHT22;9810;52.480;9.806;2023-07-31T09:44:40;18.50;99.90
19348;DHT22;9810;52.480;9.806;2023-07-31T09:47:08;18.30;99.90
19348;DHT22;9810;52.480;9.806;2023-07-31T09:49:47;18.10;99.90
19348;DHT22;9810;52.480;9.806;2023-07-31T09:52:14;18.00;99.90
19348;DHT22;9810;52.480;9.806;2023-07-31T09:54:43;17.90;99.90
19348;DHT22;9810;52.480;9.806;2023-07-31T09:57:11;17.80;99.90
19348;DHT22;9810;52.480;9.806;2023-07-31T09:59:39;17.70;99.90
19348;DHT22;9810;52.480;9.806;2023-07-31T10:02:09;17.80;99.90
19348;DHT22;9810;52.480;9.806;2023-07-31T10:04:40;17.90;99.90
19348;DHT22;9810;52.480;9.806;2023-07-31T10:07:09;17.90;99.90
19348;DHT22;9810;52.480;9.806;2023-07-31T10:09:36;17.90;99.90
19348;DHT22;9810;52.480;9.806;2023-07-31T10:12:07;18.00;99.90
19348;DHT22;9810;52.480;9.806;2023-07-31T10:14:37;18.00;99.90
19348;DHT22;9810;52.480;9.806;2023-07-31T10:17:06;18.10;99.90
19348;DHT22;9810;52.480;9.806;2023-07-31T10:19:35;18.10;99.90
19348;DHT22;9810;52.480;9.806;2023-07-31T10:22:03;18.10;99.90
19348;DHT22;9810;52.480;9.806;2023-07-31T10:24:32;18.10;99.90
19348;DHT22;9810;52.480;9.806;2023-07-31T10:27:00;18.10;99.90
19348;DHT22;9810;52.480;9.806;2023-07-31T10:29:30;18.20;99.90
19348;DHT22;9810;52.480;9.806;2023-07-31T10:31:58;18.20;99.90
19348;DHT22;9810;52.480;9.806;2023-07-31T10:34:26;18.20;99.90
19348;DHT22;9810;52.480;9.806;2023-07-31T10:39:58;18.30;99.90
19348;DHT22;9810;52.480;9.806;2023-07-31T10:42:31;18.20;99.90
19348;DHT22;9810;52.480;9.806;2023-07-31T10:45:03;19.40;99.90
19348;DHT22;9810;52.480;9.806;2023-07-31T10:47:31;18.90;99.90
19348;DHT22;9810;52.480;9.806;2023-07-31T10:50:16;18.90;99.90
19348;DHT22;9810;52.480;9.806;2023-07-31T10:52:47;18.70;99.90
19348;DHT22;9810;52.480;9.806;2023-07-31T10:55:26;18.80;99.90
19348;DHT22;9810;52.480;9.806;2023-07-31T10:57:54;18.60;99.90
19348;DHT22;9810;52.480;9.806;2023-07-31T11:00:26;18.80;99.90
19348;DHT22;9810;52.480;9.806;2023-07-31T11:03:01;18.90;99.90
19348;DHT22;9810;52.480;9.806;2023-07-31T11:06:07;18.80;99.90
19348;DHT22;9810;52.480;9.806;2023-07-31T11:08:42;19.40;99.90
19348;DHT22;9810;52.480;9.806;2023-07-31T11:11:11;18.70;99.90
19348;DHT22;9810;52.480;9.806;2023-07-31T11:13:43;18.60;99.90
19348;DHT22;9810;52.480;9.806;2023-07-31T11:16:12;18.60;99.90
19348;DHT22;9810;52.480;9.806;2023-07-31T11:18:40;18.50;99.90
19348;DHT22;9810;52.480;9.806;2023-07-31T11:21:08;18.50;99.90
19348;DHT22;9810;52.480;9.806;2023-07-31T11:23:37;18.60;99.90
19348;DHT22;9810;52.480;9.806;2023-07-31T11:26:06;18.50;99.90
19348;DHT22;9810;52.480;9.806;2023-07-31T11:28:34;18.70;99.90
19348;DHT22;9810;52.480;9.806;2023-07-31T11:31:03;18.80;99.90
19348;DHT22;9810;52.480;9.806;2023-07-31T11:33:32;18.90;99.90
19348;DHT22;9810;52.480;9.806;2023-07-31T11:36:00;18.80;99.90
19348;DHT22;9810;52.480;9.806;2023-07-31T11:38:28;18.80;99.90
19348;DHT22;9810;52.480;9.806;2023-07-31T11:40:58;18.80;99.90
19348;DHT22;9810;52.480;9.806;2023-07-31T11:43:25;18.80;99.90
19348;DHT22;9810;52.480;9.806;2023-07-31T11:45:55;18.70;99.90
19348;DHT22;9810;52.480;9.806;2023-07-31T11:48:23;18.60;99.90
19348;DHT22;9810;52.480;9.806;2023-07-31T11:50:57;18.60;99.90
19348;DHT22;9810;52.480;9.806;2023-07-31T11:53:28;18.60;99.90
19348;DHT22;9810;52.480;9.806;2023-07-31T11:55:58;18.60;99.90
19348;DHT22;9810;52.480;9.806;2023-07-31T11:58:26;18.60;99.90
19348;DHT22;9810;52.480;9.806;2023-07-31T12:00:53;18.50;99.90
19348;DHT22;9810;52.480;9.806;2023-07-31T12:03:21;18.40;99.90
19348;DHT22;9810;52.480;9.806;2023-07-31T12:05:48;18.30;99.90
19348;DHT22;9810;52.480;9.806;2023-07-31T12:08:21;18.30;99.90
19348;DHT22;9810;52.480;9.806;2023-07-31T12:10:50;18.30;99.90
19348;DHT22;9810;52.480;9.806;2023-07-31T12:13:21;18.30;99.90
19348;DHT22;9810;52.480;9.806;2023-07-31T12:15:48;18.20;99.90
19348;DHT22;9810;52.480;9.806;2023-07-31T12:18:19;18.30;99.90
19348;DHT22;9810;52.480;9.806;2023-07-31T12:20:48;18.20;99.90
19348;DHT22;9810;52.480;9.806;2023-07-31T12:23:20;18.20;99.90
19348;DHT22;9810;52.480;9.806;2023-07-31T12:26:00;18.30;99.90
19348;DHT22;9810;52.480;9.806;2023-07-31T12:28:27;18.30;99.90
19348;DHT22;9810;52.480;9.806;2023-07-31T12:30:57;18.30;99.90
19348;DHT22;9810;52.480;9.806;2023-07-31T12:33:30;18.20;99.90
19348;DHT22;9810;52.480;9.806;2023-07-31T12:36:00;18.20;99.90
19348;DHT22;9810;52.480;9.806;2023-07-31T12:38:29;18.20;99.90
19348;DHT22;9810;52.480;9.806;2023-07-31T12:40:57;18.40;99.90
19348;DHT22;9810;52.480;9.806;2023-07-31T12:43:24;18.50;99.90
19348;DHT22;9810;52.480;9.806;2023-07-31T12:45:51;18.60;99.90
19348;DHT22;9810;52.480;9.806;2023-07-31T12:48:18;18.60;99.90
19348;DHT22;9810;52.480;9.806;2023-07-31T12:50:45;18.70;99.90
19348;DHT22;9810;52.480;9.806;2023-07-31T12:53:13;18.70;99.90
19348;DHT22;9810;52.480;9.806;2023-07-31T12:55:41;18.80;99.90
19348;DHT22;9810;52.480;9.806;2023-07-31T12:58:09;18.90;99.90
19348;DHT22;9810;52.480;9.806;2023-07-31T13:00:36;18.90;99.90
19348;DHT22;9810;52.480;9.806;2023-07-31T13:03:04;18.80;99.90
19348;DHT22;9810;52.480;9.806;2023-07-31T13:05:31;18.70;99.90
19348;DHT22;9810;52.480;9.806;2023-07-31T13:07:58;18.80;99.90
19348;DHT22;9810;52.480;9.806;2023-07-31T13:10:27;18.80;99.90
19348;DHT22;9810;52.480;9.806;2023-07-31T13:12:57;18.70;99.90
19348;DHT22;9810;52.480;9.806;2023-07-31T13:15:24;18.70;99.90
19348;DHT22;9810;52.480;9.806;2023-07-31T13:17:51;18.90;99.90
19348;DHT22;9810;52.480;9.806;2023-07-31T13:20:19;18.70;99.90
19348;DHT22;9810;52.480;9.806;2023-07-31T13:22:46;18.80;99.90
19348;DHT22;9810;52.480;9.806;2023-07-31T13:25:13;18.80;99.90
19348;DHT22;9810;52.480;9.806;2023-07-31T13:27:40;19.00;99.90
19348;DHT22;9810;52.480;9.806;2023-07-31T13:30:10;18.80;99.90
19348;DHT22;9810;52.480;9.806;2023-07-31T13:32:37;19.00;99.90
19348;DHT22;9810;52.480;9.806;2023-07-31T13:35:05;18.90;99.90
19348;DHT22;9810;52.480;9.806;2023-07-31T13:37:33;18.90;99.90
19348;DHT22;9810;52.480;9.806;2023-07-31T13:40:00;18.90;99.90
19348;DHT22;9810;52.480;9.806;2023-07-31T13:42:27;18.90;99.90
19348;DHT22;9810;52.480;9.806;2023-07-31T13:44:55;18.90;99.90
19348;DHT22;9810;52.480;9.806;2023-07-31T13:47:24;18.90;99.90
19348;DHT22;9810;52.480;9.806;2023-07-31T13:49:52;19.00;99.90
19348;DHT22;9810;52.480;9.806;2023-07-31T13:52:19;19.00;99.90
19348;DHT22;9810;52.480;9.806;2023-07-31T13:54:46;19.00;99.90
19348;DHT22;9810;52.480;9.806;2023-07-31T13:57:13;19.10;99.90
19348;DHT22;9810;52.480;9.806;2023-07-31T13:59:40;19.10;99.90
19348;DHT22;9810;52.480;9.806;2023-07-31T14:02:07;19.10;99.90
19348;DHT22;9810;52.480;9.806;2023-07-31T14:04:36;19.00;99.90
19348;DHT22;9810;52.480;9.806;2023-07-31T14:07:04;19.10;99.90
19348;DHT22;9810;52.480;9.806;2023-07-31T14:09:31;19.10;99.90
19348;DHT22;9810;52.480;9.806;2023-07-31T14:11:58;19.10;99.90
19348;DHT22;9810;52.480;9.806;2023-07-31T14:14:25;19.10;99.90
19348;DHT22;9810;52.480;9.806;2023-07-31T14:16:52;19.10;99.90
19348;DHT22;9810;52.480;9.806;2023-07-31T14:19:19;19.20;99.90
19348;DHT22;9810;52.480;9.806;2023-07-31T14:21:48;19.10;99.90
19348;DHT22;9810;52.480;9.806;2023-07-31T14:24:15;19.10;99.90
19348;DHT22;9810;52.480;9.806;2023-07-31T14:26:43;19.10;99.90
19348;DHT22;9810;52.480;9.806;2023-07-31T14:29:10;19.10;99.90
19348;DHT22;9810;52.480;9.806;2023-07-31T14:31:37;19.10;99.90
19348;DHT22;9810;52.480;9.806;2023-07-31T14:34:04;19.20;99.90
19348;DHT22;9810;52.480;9.806;2023-07-31T14:36:31;19.20;99.90
19348;DHT22;9810;52.480;9.806;2023-07-31T14:39:00;19.20;99.90
19348;DHT22;9810;52.480;9.806;2023-07-31T14:41:27;19.10;99.90
19348;DHT22;9810;52.480;9.806;2023-07-31T14:43:54;19.10;99.90
19348;DHT22;9810;52.480;9.806;2023-07-31T14:46:22;19.10;99.90
19348;DHT22;9810;52.480;9.806;2023-07-31T14:48:49;19.00;99.90
19348;DHT22;9810;52.480;9.806;2023-07-31T14:51:16;19.00;99.90
19348;DHT22;9810;52.480;9.806;2023-07-31T14:53:43;19.00;99.90
19348;DHT22;9810;52.480;9.806;2023-07-31T14:56:14;19.00;99.90
19348;DHT22;9810;52.480;9.806;2023-07-31T14:58:41;19.10;99.90
19348;DHT22;9810;52.480;9.806;2023-07-31T15:01:08;19.00;99.90
19348;DHT22;9810;52.480;9.806;2023-07-31T15:03:36;18.90;99.90
19348;DHT22;9810;52.480;9.806;2023-07-31T15:06:03;19.20;99.90
19348;DHT22;9810;52.480;9.806;2023-07-31T15:08:31;19.20;99.90
19348;DHT22;9810;52.480;9.806;2023-07-31T15:10:59;19.20;99.90
19348;DHT22;9810;52.480;9.806;2023-07-31T15:13:28;19.20;99.90
19348;DHT22;9810;52.480;9.806;2023-07-31T15:15:55;19.30;99.90
19348;DHT22;9810;52.480;9.806;2023-07-31T15:18:23;19.30;99.90
19348;DHT22;9810;52.480;9.806;2023-07-31T15:20:51;19.30;99.90
19348;DHT22;9810;52.480;9.806;2023-07-31T15:23:18;19.40;99.90
19348;DHT22;9810;52.480;9.806;2023-07-31T15:25:46;19.30;99.90
19348;DHT22;9810;52.480;9.806;2023-07-31T15:28:13;19.30;99.90
19348;DHT22;9810;52.480;9.806;2023-07-31T15:30:44;19.30;99.90
19348;DHT22;9810;52.480;9.806;2023-07-31T15:33:15;19.30;99.90
19348;DHT22;9810;52.480;9.806;2023-07-31T15:35:42;19.30;99.90
19348;DHT22;9810;52.480;9.806;2023-07-31T15:38:09;19.30;99.90
19348;DHT22;9810;52.480;9.806;2023-07-31T15:40:38;19.30;99.90
19348;DHT22;9810;52.480;9.806;2023-07-31T15:43:05;19.40;99.90
19348;DHT22;9810;52.480;9.806;2023-07-31T15:45:32;19.40;99.90
19348;DHT22;9810;52.480;9.806;2023-07-31T15:48:01;19.50;99.90
19348;DHT22;9810;52.480;9.806;2023-07-31T15:50:28;19.40;99.90
19348;DHT22;9810;52.480;9.806;2023-07-31T15:52:57;19.50;99.90
19348;DHT22;9810;52.480;9.806;2023-07-31T15:55:24;19.40;99.90